createdAt,value
2023-03-15T00:02:25.320Z,76.38
2023-03-15T00:04:55.930Z,76.29
2023-03-15T00:07:25.941Z,76.09
2023-03-15T00:09:54.558Z,76.32
2023-03-15T00:12:23.080Z,76.04
2023-03-15T00:14:51.390Z,75.88
2023-03-15T00:17:19.121Z,75.83
2023-03-15T00:19:48.054Z,75.89
2023-03-15T00:22:18.272Z,75.83
2023-03-15T00:24:46.284Z,75.62
2023-03-15T00:27:16.391Z,75.38
2023-03-15T00:29:46.090Z,75.30
2023-03-15T00:32:14.039Z,75.11
2023-03-15T00:34:41.833Z,74.94
2023-03-15T00:37:11.491Z,74.83
2023-03-15T00:39:40.592Z,74.97
2023-03-15T00:42:08.579Z,74.92
2023-03-15T00:44:36.178Z,74.85
2023-03-15T00:47:03.803Z,74.88
2023-03-15T00:49:31.380Z,74.87
2023-03-15T00:51:59.081Z,74.97
2023-03-15T00:54:26.664Z,74.98
2023-03-15T00:56:54.363Z,74.94
2023-03-15T00:59:22.388Z,74.50
2023-03-15T01:01:50.019Z,74.44
2023-03-15T01:04:20.099Z,74.06
2023-03-15T01:06:52.361Z,74.29
2023-03-15T01:09:20.030Z,73.47
2023-03-15T01:11:47.647Z,73.60
2023-03-15T01:14:15.310Z,73.42
2023-03-15T01:16:45.400Z,73.03
2023-03-15T01:19:14.504Z,72.60
2023-03-15T01:21:42.182Z,72.50
2023-03-15T01:24:16.445Z,72.41
2023-03-15T01:26:44.088Z,72.21
2023-03-15T01:29:13.585Z,72.13
2023-03-15T01:31:41.447Z,71.29
2023-03-15T01:34:14.021Z,71.38
2023-03-15T01:36:41.635Z,71.30
2023-03-15T01:39:09.194Z,71.21
2023-03-15T01:41:38.294Z,71.09
2023-03-15T01:44:06.055Z,71.09
2023-03-15T01:46:37.108Z,70.99
2023-03-15T01:49:17.214Z,70.74
2023-03-15T01:51:51.243Z,70.52
2023-03-15T01:54:54.926Z,70.65
2023-03-15T01:57:36.308Z,70.76
2023-03-15T02:00:11.383Z,70.77
2023-03-15T02:02:51.506Z,70.74
2023-03-15T02:05:27.256Z,71.00
2023-03-15T02:07:56.244Z,70.96
2023-03-15T02:10:42.009Z,70.88
2023-03-15T02:13:22.789Z,70.97
2023-03-15T02:15:53.370Z,71.13
2023-03-15T02:18:24.302Z,71.23
2023-03-15T02:21:00.966Z,71.37
2023-03-15T02:23:29.894Z,71.38
2023-03-15T02:26:14.745Z,71.36
2023-03-15T02:28:44.996Z,71.42
2023-03-15T02:31:14.010Z,71.59
2023-03-15T02:33:53.214Z,71.67
2023-03-15T02:36:29.099Z,71.77
2023-03-15T02:38:58.033Z,71.71
2023-03-15T02:41:33.423Z,71.79
2023-03-15T02:44:10.973Z,71.95
2023-03-15T02:46:39.034Z,71.88
2023-03-15T02:49:08.932Z,71.97
2023-03-15T02:51:36.560Z,72.02
2023-03-15T02:54:08.717Z,72.21
2023-03-15T02:56:36.447Z,72.32
2023-03-15T02:59:04.108Z,72.47
2023-03-15T03:01:32.525Z,72.33
2023-03-15T03:04:00.183Z,72.35
2023-03-15T03:06:27.759Z,72.39
2023-03-15T03:08:55.442Z,72.38
2023-03-15T03:11:23.071Z,72.20
2023-03-15T03:13:51.241Z,72.25
2023-03-15T03:16:18.846Z,72.22
2023-03-15T03:18:48.853Z,72.00
2023-03-15T03:21:16.432Z,71.62
2023-03-15T03:23:46.281Z,70.46
2023-03-15T03:26:20.947Z,70.21
2023-03-15T03:28:49.671Z,69.19
2023-03-15T03:31:22.125Z,68.53
2023-03-15T03:33:52.482Z,68.36
2023-03-15T03:36:20.585Z,67.95
2023-03-15T03:38:51.514Z,67.67
2023-03-15T03:41:19.116Z,67.36
2023-03-15T03:43:46.693Z,67.24
2023-03-15T03:46:14.350Z,67.08
2023-03-15T03:48:41.975Z,67.21
2023-03-15T03:51:09.895Z,66.87
2023-03-15T03:53:37.449Z,66.98
2023-03-15T03:56:09.276Z,67.27
2023-03-15T03:58:36.880Z,67.20
2023-03-15T04:01:04.991Z,67.38
2023-03-15T04:03:33.277Z,67.38
2023-03-15T04:06:05.635Z,67.25
2023-03-15T04:08:33.297Z,67.33
2023-03-15T04:11:03.927Z,67.32
2023-03-15T04:13:34.326Z,67.54
2023-03-15T04:16:03.767Z,67.66
2023-03-15T04:18:33.890Z,67.75
2023-03-15T04:21:01.465Z,67.80
2023-03-15T04:23:29.108Z,67.82
2023-03-15T04:25:58.023Z,67.99
2023-03-15T04:28:25.856Z,68.05
2023-03-15T04:31:01.801Z,68.05
2023-03-15T04:33:32.101Z,67.89
2023-03-15T04:36:00.190Z,67.60
2023-03-15T04:38:28.068Z,67.58
2023-03-15T04:40:56.145Z,67.37
2023-03-15T04:43:24.420Z,67.50
2023-03-15T04:45:52.838Z,67.34
2023-03-15T04:48:20.454Z,67.48
2023-03-15T04:50:48.032Z,67.38
2023-03-15T04:53:15.627Z,67.44
2023-03-15T04:55:43.263Z,67.44
2023-03-15T04:58:10.883Z,67.22
2023-03-15T05:00:38.556Z,67.31
2023-03-15T05:03:06.205Z,67.38
2023-03-15T05:05:34.682Z,67.38
2023-03-15T05:08:02.345Z,67.47
2023-03-15T05:10:31.433Z,67.56
2023-03-15T05:12:59.169Z,67.58
2023-03-15T05:15:27.120Z,67.78
2023-03-15T05:17:56.068Z,68.05
2023-03-15T05:20:26.065Z,68.14
2023-03-15T05:22:54.288Z,68.42
2023-03-15T05:25:22.237Z,68.62
2023-03-15T05:27:49.873Z,68.76
2023-03-15T05:30:17.702Z,69.11
2023-03-15T05:32:45.864Z,69.30
2023-03-15T05:35:14.454Z,69.44
2023-03-15T05:37:42.409Z,69.84
2023-03-15T05:40:11.493Z,70.20
2023-03-15T05:42:39.147Z,70.32
2023-03-15T05:45:12.474Z,70.02
2023-03-15T05:47:40.505Z,70.07
2023-03-15T05:50:08.778Z,70.95
2023-03-15T05:52:38.876Z,71.19
2023-03-15T05:55:07.670Z,71.47
2023-03-15T05:57:35.267Z,71.59
2023-03-15T06:00:05.818Z,71.62
2023-03-15T06:02:33.426Z,71.96
2023-03-15T06:05:01.004Z,72.15
2023-03-15T06:07:29.995Z,72.14
2023-03-15T06:09:57.588Z,72.28
2023-03-15T06:12:25.252Z,72.31
2023-03-15T06:14:52.885Z,72.49
2023-03-15T06:17:20.703Z,72.68
2023-03-15T06:19:50.740Z,72.67
2023-03-15T06:22:20.532Z,72.87
2023-03-15T06:24:48.579Z,72.67
2023-03-15T06:27:16.161Z,72.71
2023-03-15T06:29:43.794Z,72.87
2023-03-15T06:32:11.503Z,72.88
2023-03-15T06:34:39.133Z,72.81
2023-03-15T06:37:06.775Z,72.76
2023-03-15T06:39:36.847Z,72.90
2023-03-15T06:42:06.648Z,72.88
2023-03-15T06:44:34.260Z,72.77
2023-03-15T06:47:03.312Z,72.69
2023-03-15T06:49:33.057Z,72.30
2023-03-15T06:52:00.995Z,72.04
2023-03-15T06:54:28.650Z,71.97
2023-03-15T06:56:56.265Z,71.81
2023-03-15T06:59:24.286Z,71.54
2023-03-15T07:01:52.094Z,71.57
2023-03-15T07:04:19.838Z,71.48
2023-03-15T07:06:47.470Z,71.55
2023-03-15T07:09:15.098Z,71.32
2023-03-15T07:11:42.778Z,71.12
2023-03-15T07:14:10.416Z,71.03
2023-03-15T07:16:38.040Z,71.18
2023-03-15T07:19:05.639Z,71.24
2023-03-15T07:21:33.369Z,71.06
2023-03-15T07:24:03.374Z,71.15
2023-03-15T07:26:31.007Z,71.07
2023-03-15T07:28:58.624Z,70.97
2023-03-15T07:31:28.496Z,70.79
2023-03-15T07:33:56.073Z,70.77
2023-03-15T07:36:23.999Z,70.27
2023-03-15T07:38:51.621Z,70.11
2023-03-15T07:41:19.207Z,69.97
2023-03-15T07:43:46.800Z,70.08
2023-03-15T07:46:14.445Z,69.86
2023-03-15T07:48:44.713Z,69.68
2023-03-15T07:51:12.329Z,69.52
2023-03-15T07:53:39.965Z,69.21
2023-03-15T07:56:07.928Z,69.12
2023-03-15T07:58:37.938Z,68.92
2023-03-15T08:01:05.730Z,68.81
2023-03-15T08:03:33.496Z,68.76
2023-03-15T08:06:01.102Z,68.51
2023-03-15T08:08:32.438Z,68.42
2023-03-15T08:11:02.167Z,68.21
2023-03-15T08:13:29.837Z,67.97
2023-03-15T08:15:57.460Z,67.38
2023-03-15T08:18:25.112Z,67.37
2023-03-15T08:20:53.030Z,67.14
2023-03-15T08:23:22.000Z,66.64
2023-03-15T08:25:51.724Z,66.42
2023-03-15T08:28:22.456Z,65.64
2023-03-15T08:30:52.313Z,65.72
2023-03-15T08:33:19.870Z,65.62
2023-03-15T08:35:52.715Z,65.18
2023-03-15T08:38:20.699Z,64.86
2023-03-15T08:40:48.292Z,65.10
2023-03-15T08:43:15.912Z,65.01
2023-03-15T08:45:59.675Z,64.47
2023-03-15T08:48:28.259Z,64.57
2023-03-15T08:50:56.025Z,64.15
2023-03-15T08:53:23.592Z,63.91
2023-03-15T08:55:51.240Z,63.69
2023-03-15T08:58:21.102Z,63.66
2023-03-15T09:00:52.601Z,63.71
2023-03-15T09:03:22.527Z,63.59
2023-03-15T09:05:50.268Z,63.42
2023-03-15T09:08:21.170Z,63.38
2023-03-15T09:10:48.917Z,63.22
2023-03-15T09:13:16.543Z,63.10
2023-03-15T09:15:44.214Z,63.18
2023-03-15T09:18:11.815Z,63.21
2023-03-15T09:20:39.869Z,63.18
2023-03-15T09:23:09.983Z,63.00
2023-03-15T09:25:38.032Z,63.14
2023-03-15T09:28:09.906Z,63.05
2023-03-15T09:30:39.000Z,62.90
2023-03-15T09:33:14.668Z,63.03
2023-03-15T09:35:45.033Z,62.86
2023-03-15T09:38:14.231Z,62.66
2023-03-15T09:40:47.785Z,61.84
2023-03-15T09:43:41.200Z,62.04
2023-03-15T09:46:26.544Z,61.30
2023-03-15T09:49:14.388Z,61.09
2023-03-15T09:51:59.575Z,60.75
2023-03-15T09:54:37.385Z,60.73
2023-03-15T09:57:11.549Z,60.71
2023-03-15T09:59:44.401Z,60.81
2023-03-15T10:02:19.519Z,60.64
2023-03-15T10:04:51.255Z,60.25
2023-03-15T10:07:19.019Z,60.14
2023-03-15T10:09:46.997Z,59.87
2023-03-15T10:12:14.817Z,59.88
2023-03-15T10:15:18.386Z,59.54
2023-03-15T10:18:21.083Z,58.78
2023-03-15T10:21:00.127Z,59.00
2023-03-15T10:23:41.900Z,58.92
2023-03-15T10:26:15.550Z,58.75
2023-03-15T10:28:44.898Z,58.47
2023-03-15T10:31:21.547Z,58.30
2023-03-15T10:33:54.791Z,57.96
2023-03-15T10:36:24.867Z,57.76
2023-03-15T10:38:52.837Z,57.14
2023-03-15T10:41:50.789Z,57.23
2023-03-15T10:44:24.511Z,57.10
2023-03-15T10:47:23.250Z,56.74
2023-03-15T10:49:57.719Z,56.38
2023-03-15T10:52:30.052Z,56.29
2023-03-15T10:55:02.461Z,55.98
2023-03-15T10:57:39.036Z,55.63
2023-03-15T11:00:23.894Z,55.39
2023-03-15T11:03:01.250Z,55.09
2023-03-15T11:05:39.348Z,54.94
2023-03-15T11:08:14.273Z,54.08
2023-03-15T11:10:42.014Z,53.87
2023-03-15T11:13:24.869Z,53.81
2023-03-15T11:15:55.348Z,53.48
2023-03-15T11:18:30.992Z,53.33
2023-03-15T11:20:59.458Z,53.38
2023-03-15T11:23:30.986Z,53.25
2023-03-15T11:26:01.536Z,52.68
2023-03-15T11:28:32.755Z,52.12
2023-03-15T11:31:04.671Z,52.26
2023-03-15T11:33:35.119Z,52.22
2023-03-15T11:36:06.578Z,51.96
2023-03-15T11:38:38.682Z,51.51
2023-03-15T11:41:15.973Z,51.72
2023-03-15T11:44:03.709Z,51.28
2023-03-15T11:46:39.334Z,51.17
2023-03-15T11:49:32.373Z,50.75
2023-03-15T11:52:00.961Z,50.41
2023-03-15T11:54:32.220Z,50.10
2023-03-15T11:57:09.119Z,50.19
2023-03-15T11:59:40.008Z,49.92
2023-03-15T12:02:10.956Z,49.86
2023-03-15T12:05:03.977Z,49.53
2023-03-15T12:07:59.485Z,49.03
2023-03-15T12:10:35.149Z,49.67
2023-03-15T12:13:17.945Z,49.73
2023-03-15T12:15:47.904Z,49.28
2023-03-15T12:18:19.053Z,48.97
2023-03-15T12:20:58.266Z,48.44
2023-03-15T12:23:39.478Z,47.82
2023-03-15T12:26:13.703Z,47.31
2023-03-15T12:28:50.845Z,47.46
2023-03-15T12:31:19.460Z,47.17
2023-03-15T12:33:51.431Z,47.13
2023-03-15T12:36:39.018Z,46.09
2023-03-15T12:39:18.748Z,45.96
2023-03-15T12:41:52.495Z,45.75
2023-03-15T12:44:22.869Z,46.13
2023-03-15T12:46:50.430Z,46.38
2023-03-15T12:49:22.302Z,45.59
2023-03-15T12:52:01.234Z,46.34
2023-03-15T12:54:40.328Z,45.83
2023-03-15T12:57:13.057Z,45.71
2023-03-15T12:59:55.931Z,45.13
2023-03-15T13:02:43.416Z,45.05
2023-03-15T13:05:13.752Z,44.84
2023-03-15T13:07:52.239Z,44.53
2023-03-15T13:10:54.112Z,43.50
2023-03-15T13:13:40.136Z,43.80
2023-03-15T13:16:17.917Z,43.30
2023-03-15T13:19:05.529Z,43.05
2023-03-15T13:21:37.238Z,43.27
2023-03-15T13:24:17.139Z,42.13
2023-03-15T13:26:59.489Z,42.46
2023-03-15T13:29:34.524Z,42.14
2023-03-15T13:32:09.895Z,41.63
2023-03-15T13:34:37.576Z,41.55
2023-03-15T13:37:12.182Z,41.43
2023-03-15T13:39:39.834Z,40.82
2023-03-15T13:42:19.404Z,40.57
2023-03-15T13:44:47.063Z,40.12
2023-03-15T13:47:22.262Z,40.72
2023-03-15T13:49:53.630Z,40.76
2023-03-15T13:52:21.351Z,40.89
2023-03-15T13:54:53.238Z,40.61
2023-03-15T13:57:23.150Z,40.93
2023-03-15T14:00:19.176Z,40.75
2023-03-15T14:02:55.954Z,40.86
2023-03-15T14:05:30.464Z,40.96
2023-03-15T14:08:02.730Z,41.03
2023-03-15T14:10:41.516Z,41.16
2023-03-15T14:13:31.894Z,40.97
2023-03-15T14:16:15.624Z,41.22
2023-03-15T14:18:43.782Z,41.14
2023-03-15T14:21:20.454Z,41.05
2023-03-15T14:23:49.967Z,41.11
2023-03-15T14:26:24.028Z,40.54
2023-03-15T14:29:02.468Z,41.38
2023-03-15T14:31:34.583Z,41.18
2023-03-15T14:34:23.885Z,41.21
2023-03-15T14:36:59.876Z,41.05
2023-03-15T14:39:31.163Z,40.96
2023-03-15T14:42:01.167Z,41.06
2023-03-15T14:44:28.826Z,41.13
2023-03-15T14:46:56.592Z,41.36
2023-03-15T14:49:27.056Z,41.47
2023-03-15T14:52:03.554Z,41.17
2023-03-15T14:54:34.870Z,41.44
2023-03-15T14:57:02.492Z,41.59
2023-03-15T14:59:30.309Z,41.67
2023-03-15T15:02:02.959Z,41.79
2023-03-15T15:04:34.975Z,41.76
2023-03-15T15:07:05.116Z,41.71
2023-03-15T15:09:32.740Z,41.71
2023-03-15T15:12:00.323Z,41.61
2023-03-15T15:14:30.243Z,41.57
2023-03-15T15:16:57.939Z,41.55
2023-03-15T15:19:25.568Z,41.38
2023-03-15T15:21:53.209Z,41.52
2023-03-15T15:24:23.210Z,41.43
2023-03-15T15:26:50.814Z,41.29
2023-03-15T15:29:18.782Z,41.25
2023-03-15T15:31:46.955Z,41.08
2023-03-15T15:34:16.962Z,41.16
2023-03-15T15:36:46.550Z,41.24
2023-03-15T15:39:27.012Z,41.31
2023-03-15T15:41:54.769Z,41.07
2023-03-15T15:44:25.474Z,41.11
2023-03-15T15:46:53.694Z,40.91
2023-03-15T15:49:21.335Z,40.54
2023-03-15T15:51:50.353Z,40.83
2023-03-15T15:54:25.962Z,40.60
2023-03-15T15:56:56.798Z,40.69
2023-03-15T15:59:27.179Z,40.31
2023-03-15T16:02:02.408Z,40.26
2023-03-15T16:04:30.812Z,40.04
2023-03-15T16:07:02.114Z,39.62
2023-03-15T16:09:33.637Z,39.37
2023-03-15T16:12:01.437Z,39.35
2023-03-15T16:14:29.066Z,39.62
2023-03-15T16:16:56.653Z,39.51
2023-03-15T16:19:24.478Z,39.59
2023-03-15T16:21:54.435Z,39.53
2023-03-15T16:24:30.233Z,39.53
2023-03-15T16:27:09.721Z,39.29
2023-03-15T16:29:39.985Z,39.78
2023-03-15T16:32:19.115Z,39.73
2023-03-15T16:34:53.797Z,40.01
2023-03-15T16:37:26.177Z,39.95
2023-03-15T16:39:55.731Z,40.10
2023-03-15T16:42:23.805Z,39.85
2023-03-15T16:44:54.312Z,39.98
2023-03-15T16:47:22.162Z,39.89
2023-03-15T16:49:52.242Z,40.20
2023-03-15T16:52:19.882Z,40.35
2023-03-15T16:54:49.906Z,40.44
2023-03-15T16:57:23.345Z,40.44
2023-03-15T16:59:51.878Z,40.56
2023-03-15T17:02:29.743Z,40.65
2023-03-15T17:04:57.529Z,40.82
2023-03-15T17:07:35.212Z,40.67
2023-03-15T17:10:10.254Z,40.96
2023-03-15T17:12:39.069Z,41.07
2023-03-15T17:15:07.566Z,40.99
2023-03-15T17:17:36.208Z,40.98
2023-03-15T17:20:10.178Z,40.94
2023-03-15T17:22:38.682Z,41.17
2023-03-15T17:25:06.646Z,41.21
2023-03-15T17:27:35.561Z,41.53
2023-03-15T17:30:09.401Z,41.62
2023-03-15T17:32:37.088Z,41.41
2023-03-15T17:35:04.830Z,41.54
2023-03-15T17:37:37.591Z,41.50
2023-03-15T17:40:13.346Z,41.55
2023-03-15T17:42:41.029Z,41.71
2023-03-15T17:45:17.194Z,41.72
2023-03-15T17:47:45.009Z,41.50
2023-03-15T17:50:13.071Z,41.34
2023-03-15T17:52:44.862Z,41.38
2023-03-15T17:55:17.306Z,41.37
2023-03-15T17:57:54.086Z,41.36
2023-03-15T18:00:23.263Z,41.56
2023-03-15T18:02:55.957Z,41.69
2023-03-15T18:05:26.921Z,41.62
2023-03-15T18:08:01.634Z,41.61
2023-03-15T18:10:35.341Z,41.46
2023-03-15T18:13:03.887Z,41.53
2023-03-15T18:15:31.556Z,41.49
2023-03-15T18:17:59.328Z,41.32
2023-03-15T18:20:29.493Z,41.17
2023-03-15T18:22:57.201Z,41.22
2023-03-15T18:25:28.388Z,41.06
2023-03-15T18:27:56.557Z,41.09
2023-03-15T18:30:26.713Z,41.18
2023-03-15T18:32:55.364Z,40.72
2023-03-15T18:35:32.331Z,40.70
2023-03-15T18:38:00.303Z,40.30
2023-03-15T18:40:30.132Z,40.18
2023-03-15T18:43:01.026Z,40.36
2023-03-15T18:45:32.108Z,40.04
2023-03-15T18:48:02.598Z,39.80
2023-03-15T18:50:33.608Z,39.97
2023-03-15T18:53:01.506Z,40.05
2023-03-15T18:55:31.929Z,39.99
2023-03-15T18:57:59.537Z,39.42
2023-03-15T19:00:31.541Z,39.71
2023-03-15T19:03:01.959Z,39.62
2023-03-15T19:05:31.981Z,39.66
2023-03-15T19:07:59.917Z,39.37
2023-03-15T19:10:30.280Z,39.30
2023-03-15T19:13:00.887Z,39.56
2023-03-15T19:15:29.408Z,39.66
2023-03-15T19:17:57.110Z,39.64
2023-03-15T19:20:25.176Z,39.65
2023-03-15T19:22:53.494Z,39.32
2023-03-15T19:25:21.771Z,39.58
2023-03-15T19:27:49.651Z,39.50
2023-03-15T19:30:20.892Z,39.79
2023-03-15T19:32:49.944Z,39.86
2023-03-15T19:35:19.314Z,39.81
2023-03-15T19:37:47.498Z,39.72
2023-03-15T19:40:18.902Z,39.73
2023-03-15T19:42:48.544Z,39.82
2023-03-15T19:45:16.785Z,39.28
2023-03-15T19:47:44.947Z,39.32
2023-03-15T19:50:14.804Z,39.30
2023-03-15T19:52:45.998Z,39.67
2023-03-15T19:55:19.398Z,39.69
2023-03-15T19:57:47.875Z,39.77
2023-03-15T20:00:17.932Z,40.08
2023-03-15T20:02:46.503Z,40.38
2023-03-15T20:05:16.819Z,40.53
2023-03-15T20:07:46.117Z,40.68
2023-03-15T20:10:14.605Z,40.76
2023-03-15T20:12:43.061Z,41.07
2023-03-15T20:15:12.258Z,41.24
2023-03-15T20:17:40.990Z,41.22
2023-03-15T20:20:11.000Z,41.37
2023-03-15T20:22:41.428Z,41.24
2023-03-15T20:25:13.161Z,41.10
2023-03-15T20:27:42.916Z,41.38
2023-03-15T20:30:12.690Z,41.75
2023-03-15T20:32:40.691Z,41.77
2023-03-15T20:35:09.853Z,41.80
2023-03-15T20:37:40.411Z,42.03
2023-03-15T20:40:11.093Z,41.88
2023-03-15T20:42:41.321Z,41.98
2023-03-15T20:45:10.653Z,42.17
2023-03-15T20:47:41.224Z,42.10
2023-03-15T20:50:10.917Z,42.17
2023-03-15T20:52:42.632Z,42.29
2023-03-15T20:55:13.854Z,42.56
2023-03-15T20:57:43.023Z,42.42
2023-03-15T21:00:18.156Z,42.25
2023-03-15T21:02:48.760Z,42.57
2023-03-15T21:05:17.822Z,42.88
2023-03-15T21:07:46.181Z,42.77
2023-03-15T21:10:17.205Z,43.00
2023-03-15T21:12:45.296Z,43.17
2023-03-15T21:15:17.350Z,43.30
2023-03-15T21:17:48.784Z,43.40
2023-03-15T21:20:16.782Z,43.55
2023-03-15T21:22:44.934Z,43.62
2023-03-15T21:25:17.366Z,43.74
2023-03-15T21:27:49.849Z,44.06
2023-03-15T21:30:18.491Z,44.19
2023-03-15T21:32:46.224Z,44.26
2023-03-15T21:35:13.982Z,44.43
2023-03-15T21:37:44.061Z,44.59
2023-03-15T21:40:13.845Z,44.82
2023-03-15T21:42:42.623Z,44.79
2023-03-15T21:45:11.994Z,45.03
2023-03-15T21:47:39.690Z,45.06
2023-03-15T21:50:08.023Z,45.22
2023-03-15T21:52:35.642Z,45.29
2023-03-15T21:55:06.797Z,45.30
2023-03-15T21:57:34.800Z,45.36
2023-03-15T22:00:02.467Z,45.36
2023-03-15T22:02:30.331Z,45.46
2023-03-15T22:04:58.014Z,45.46
2023-03-15T22:07:25.710Z,45.32
2023-03-15T22:09:55.549Z,45.53
2023-03-15T22:12:25.253Z,45.45
2023-03-15T22:15:04.783Z,45.49
2023-03-15T22:17:38.048Z,45.51
2023-03-15T22:20:12.804Z,45.36
2023-03-15T22:22:40.385Z,45.26
2023-03-15T22:25:10.783Z,45.30
2023-03-15T22:27:38.392Z,45.45
2023-03-15T22:30:08.720Z,45.66
2023-03-15T22:32:36.464Z,45.65
2023-03-15T22:35:05.842Z,45.78
2023-03-15T22:37:34.011Z,45.80
2023-03-15T22:40:01.764Z,45.96
2023-03-15T22:42:29.422Z,46.05
2023-03-15T22:44:57.031Z,46.21
2023-03-15T22:47:24.671Z,46.43
2023-03-15T22:49:54.651Z,46.18
2023-03-15T22:52:24.346Z,46.14
2023-03-15T22:54:51.933Z,46.02
2023-03-15T22:57:22.394Z,46.48
2023-03-15T22:59:53.388Z,46.35
2023-03-15T23:02:21.625Z,46.77
2023-03-15T23:04:49.267Z,46.36
2023-03-15T23:07:20.344Z,46.00
2023-03-15T23:09:47.996Z,46.66
2023-03-15T23:12:18.111Z,46.64
2023-03-15T23:14:49.628Z,46.95
2023-03-15T23:17:17.220Z,46.78
2023-03-15T23:19:44.928Z,47.02
2023-03-15T23:22:14.957Z,47.21
2023-03-15T23:24:42.546Z,47.33
2023-03-15T23:27:11.666Z,47.15
2023-03-15T23:29:53.400Z,47.43
2023-03-15T23:32:22.064Z,47.77
2023-03-15T23:34:49.794Z,47.87
2023-03-15T23:37:19.082Z,48.02
2023-03-15T23:39:46.741Z,48.27
2023-03-15T23:42:14.851Z,48.48
2023-03-15T23:44:43.425Z,48.73
2023-03-15T23:47:12.320Z,49.11
2023-03-15T23:49:39.975Z,49.36
2023-03-15T23:52:07.865Z,49.44
2023-03-15T23:54:40.247Z,49.58
2023-03-15T23:57:09.239Z,49.65
2023-03-15T23:59:39.964Z,49.88
